Cobija, Bolivia

6:42 PM BOT on July 04, 2015 (GMT -0400)
Cobija | | Change Station
CLOSE
Current Station
Airport
Location: Cobija,
Elevation: 771 ft
Nearby Weather Stations

Elev 771 ft 11.04 °S, 68.78 °W | Updated 42 minutes ago

Overcast
Overcast
68 °F
Feels Like 68 °F
N
13
Wind Variable Wind from South

Today
High -- | Low -- °F
--% Chance of Precip.
Yesterday
High -- | Low -- °F
Precip. -- in
6:54 AM 6:24 PM
Waning Gibbous, 89% visible
Pressure 29.98 in
Visibility 6.2 miles
Clouds Mostly Cloudy 1000 ft
Overcast 7000 ft
Dew Point 63 °F
Humidity 83%
Rainfall 0.00 in
Snow Depth Not available.
UV 0 out of 12
Pollen Not available.
Air Quality Not available.
Flu Activity Not available.
METAR SLCO 042200Z 18011KT 9999 BKN010 OVC070 20/17 Q1015

More Conditions Fewer Conditions

Pressure 29.98 in
Visibility 6.2 miles
Clouds Mostly Cloudy 1000 ft
Overcast 7000 ft
Dew Point 63 °F
Humidity 83%
Rainfall 0.00 in
Snow Depth Not available.
UV 0 out of 12
Pollen Not available.
Air Quality Not available.
Flu Activity Not available.
METAR SLCO 042200Z 18011KT 9999 BKN010 OVC070 20/17 Q1015

More Conditions Fewer Conditions

10-Day Weather Forecast

×

Almanac

Astronomy

Jul. 04, 2015 Rise Set
Actual Time
Civil Twilight
Nautical Twilight
Astronomical Twilight
Moon
Length of Visible Light
Length of Day
Tomorrow will be .
, % of the Moon is Illuminated

Today's Extremes

Country Highs Country Lows

Community

WunderPhotos

Upload Photos

1,835,105 photos uploaded!

WunderBlogs® & News

Nearby

Air Quality

  Air Quality AQ Index Pollutant
Not available.

Snow Depth

Station Depth Elevation

Earthquake Activity

City Distance Mag. Time & Date
Minimum magnitude displayed is 2.5.

Coastal Water Temperatures

Place Temperature

Stations

Nearby Weather Stations

Station Location Temp. Windchill Dew Point Humidity Wind Precip. Elev Updated Type